Flight Track Log - Related Links

Times and Time Zones

All times are in EDT time to prevent confusion due to time zone crossing. See the EGF4174 flight status page for this flight to view local times or setup timezone preferences in your user account.


Time Position Orientation Groundspeed Altitude Reporting Facility
EDT Latitude Longitude Course Direction KTS MPH feet Rate Location/Type
Sun 04:45:56 PM 43.1069 -76.1489 286° West 164 189 1,400  Level Boston Center
Sun 04:47:08 PM 43.1253 -76.2269 288° West 214 246 4,000 2,114 Climbing Boston Center
Sun 04:48:00 PM 43.1943 -76.4443 324° Northwest  Level FlightAware Approximate
Sun 04:48:52 PM 43.1772 -76.3581 299° West 234 269 7,600  Level Cleveland Center
Sun 04:49:00 PM 43.2094 -76.5660 281° West  Level FlightAware Approximate
Sun 04:49:52 PM 43.2056 -76.4528 292° West 255 293 9,700  Level Cleveland Center
Sun 04:50:00 PM 43.2322 -76.6889 286° West  Level FlightAware Approximate
Sun 04:50:52 PM 43.2222 -76.5658 281° West 277 319 11,000  Level Cleveland Center
Sun 04:51:00 PM 43.2583 -76.8109 286° West  Level FlightAware Approximate
Sun 04:51:52 PM 43.2408 -76.6872 282° West 312 359 12,000  Level Cleveland Center
Sun 04:52:52 PM 43.2617 -76.8169 282° West 333 383 13,200 1,200 Climbing Cleveland Center
Sun 04:53:52 PM 43.2850 -76.9525 283° West 356 410 14,400 1,300 Climbing Cleveland Center
Sun 04:54:52 PM 43.3036 -77.0856 281° West 363 418 15,800 1,150 Climbing Cleveland Center
Sun 04:55:52 PM 43.3033 -77.2197 270° West 363 418 16,700 900 Climbing Cleveland Center
Sun 04:56:52 PM 43.3011 -77.3569 269° West 363 418 17,600 550 Climbing Cleveland Center
Sun 04:57:52 PM 43.2967 -77.4997 268° West 368 423 17,800 500 Climbing Cleveland Center
Sun 04:58:52 PM 43.2939 -77.6394 268° West 368 423 18,600 800 Climbing Cleveland Center
Sun 04:59:52 PM 43.2892 -77.7825 267° West 368 423 19,400 850 Climbing Cleveland Center
Sun 05:00:52 PM 43.2864 -77.9253 269° West 368 423 20,300 850 Climbing Cleveland Center
Sun 05:01:52 PM 43.2811 -78.0708 267° West 373 429 21,100 850 Climbing Cleveland Center
Sun 05:02:52 PM 43.2781 -78.2164 268° West 384 442 22,000 850 Climbing Cleveland Center
Sun 05:03:52 PM 43.2725 -78.3622 267° West 389 448 22,800 800 Climbing Cleveland Center
Sun 05:04:52 PM 43.2689 -78.5047 268° West 384 442 23,600 600 Climbing Cleveland Center
Sun 05:05:52 PM 43.2631 -78.6503 267° West 384 442 24,000 200 Climbing Cleveland Center
Sun 05:06:52 PM 43.2575 -78.8186 267° West 391 450 24,000  Level Cleveland Center
Sun 05:07:52 PM 43.2514 -78.9728 267° West 402 463 24,000  Level Cleveland Center
Sun 05:08:39 PM 43.2333 -79.0833 257° West 410 472 24,000  Level Toronto Center
Sun 05:09:39 PM 43.2333 -79.2167 270° West 400 460 24,000  Level Toronto Center
Sun 05:10:39 PM 43.2167 -79.3667 261° West 390 449 24,000  Level Toronto Center
Sun 05:12:39 PM 43.2167 -79.6833 270° West 400 460 24,000  Level Toronto Center
Sun 05:13:39 PM 43.2000 -79.8167 260° West 400 460 24,000  Level Toronto Center
Sun 05:14:39 PM 43.2000 -79.9833 270° West 400 460 24,000  Level Toronto Center
Sun 05:15:39 PM 43.1833 -80.1167 260° West 400 460 24,000  Level Toronto Center
Sun 05:16:39 PM 43.1833 -80.2667 270° West 400 460 24,000  Level Toronto Center
Sun 05:17:39 PM 43.1833 -80.4333 270° West 400 460 24,000  Level Toronto Center
Sun 05:18:39 PM 43.1667 -80.6000 262° West 400 460 24,000  Level Toronto Center
Sun 05:19:39 PM 43.1667 -80.7333 270° West 400 460 24,000  Level Toronto Center
Sun 05:20:39 PM 43.1333 -80.8833 253° West 400 460 24,000  Level Toronto Center
Sun 05:21:39 PM 43.1333 -81.0500 270° West 400 460 24,000  Level Toronto Center
Sun 05:22:39 PM 43.1333 -81.1833 270° West 400 460 24,000  Level Toronto Center
Sun 05:23:39 PM 43.1167 -81.3500 262° West 400 460 24,000  Level Toronto Center
Sun 05:24:39 PM 43.1167 -81.5000 270° West 400 460 24,000  Level Toronto Center
Sun 05:25:39 PM 43.1000 -81.6667 262° West 400 460 24,000  Level Toronto Center
Sun 05:26:39 PM 43.1000 -81.8000 270° West 400 460 24,000  Level Toronto Center
Sun 05:27:39 PM 43.0833 -81.9667 262° West 400 460 24,000  Level Toronto Center
Sun 05:28:39 PM 43.0667 -82.1167 261° West 400 460 24,000  Level Toronto Center
Sun 05:29:39 PM 43.0667 -82.2833 270° West 400 460 24,000  Level Toronto Center
Sun 05:30:39 PM 43.0500 -82.4167 260° West 400 460 24,000  Level Toronto Center
Sun 05:31:39 PM 43.0500 -82.5833 270° West 400 460 24,000  Level Toronto Center
Sun 05:32:28 PM 43.0453 -82.6883 267° West 406 467 24,000  Level Cleveland Center
Sun 05:33:28 PM 43.0342 -82.8411 264° West 406 467 24,000  Level Cleveland Center
Sun 05:34:28 PM 43.0250 -82.9914 265° West 406 467 24,000  Level Cleveland Center
Sun 05:35:28 PM 43.0111 -83.1442 263° West 406 467 24,000  Level Cleveland Center
Sun 05:36:28 PM 42.9994 -83.2972 264° West 406 467 24,000  Level Cleveland Center
Sun 05:37:28 PM 42.9872 -83.4497 264° West 406 467 24,000  Level Cleveland Center
Sun 05:38:28 PM 42.9769 -83.6056 265° West 406 467 24,000  Level Cleveland Center
Sun 05:39:28 PM 42.9625 -83.7581 263° West 406 467 24,000  Level Cleveland Center
Sun 05:40:28 PM 42.9497 -83.9133 264° West 406 467 24,000  Level Cleveland Center
Sun 05:41:28 PM 42.9328 -84.0658 261° West 406 467 24,000  Level Cleveland Center
Sun 05:42:28 PM 42.9197 -84.2208 263° West 406 467 24,000  Level Cleveland Center
Sun 05:43:41 PM 42.9025 -84.4033 263° West 411 473 24,000  Level Chicago Center
Sun 05:44:43 PM 42.8867 -84.5581 262° West 413 475 24,000  Level Chicago Center
Sun 05:45:45 PM 42.8708 -84.7122 262° West 412 474 24,000  Level Chicago Center
Sun 05:46:47 PM 42.8514 -84.8983 262° West 414 476 24,000  Level Chicago Center
Sun 05:47:49 PM 42.8347 -85.0536 262° West 415 478 24,000  Level Chicago Center
Sun 05:48:51 PM 42.8181 -85.2072 262° West 413 475 24,000  Level Chicago Center
Sun 05:49:53 PM 42.8008 -85.3647 262° West 416 479 24,000  Level Chicago Center
Sun 05:50:55 PM 42.7833 -85.5197 261° West 415 478 24,000  Level Chicago Center
Sun 05:51:57 PM 42.7558 -85.6753 257° West 418 481 24,000 -484 Level Chicago Center
Sun 05:52:59 PM 42.7275 -85.8286 256° West 417 480 23,000 -1,171 Descending Chicago Center
Sun 05:54:00 PM 42.6950 -86.0075 256° West 407 468 21,600 -1,171 Descending Chicago Center
Sun 05:55:02 PM 42.6669 -86.1544 255° West 400 460 20,600 -629 Descending Chicago Center
Sun 05:56:04 PM 42.6408 -86.2964 256° West 390 449 20,300 -290 Descending Chicago Center
Sun 05:57:06 PM 42.6128 -86.4364 255° West 385 443 20,000 -484 Descending Chicago Center
Sun 05:58:08 PM 42.5867 -86.5800 256° West 391 450 19,300 -1,016 Descending Chicago Center
Sun 05:59:10 PM 42.5594 -86.7281 256° West 389 448 17,900 -1,597 Descending Chicago Center
Sun 06:00:12 PM 42.5317 -86.8600 254° West 384 442 16,000 -1,887 Descending Chicago Center
Sun 06:01:14 PM 42.4939 -86.9906 249° West 377 434 14,000 -2,177 Descending Chicago Center
Sun 06:02:16 PM 42.4433 -87.1358 245° Southwest 358 412 11,500 -1,887 Descending Chicago Center
Sun 06:03:18 PM 42.4131 -87.2483 250° West 328 377 10,100 -1,403 Descending Chicago Center
Sun 06:04:20 PM 42.3933 -87.3447 255° West 280 322 8,600 -1,355 Descending Chicago Center
Sun 06:05:22 PM 42.3739 -87.4328 253° West 254 292 7,300 -774 Descending Chicago Center
Sun 06:06:24 PM 42.3325 -87.5208 238° Southwest 253 291 7,000 -145 Descending Chicago Center
Sun 06:07:26 PM 42.2850 -87.5753 220° Southwest 227 261 7,000  Level Chicago Center
Sun 06:08:28 PM 42.2383 -87.6258 219° Southwest 218 251 7,000 -390 Level Chicago Center
Sun 06:09:29 PM 42.1922 -87.6792 221° Southwest 219 252 6,200 -787 Descending Chicago Center

Login

Don't have an account? Register now (free) for customized features, flight alerts, and more!